sensor_id;sensor_type;location;lat;lon;timestamp;pressure;altitude;pressure_sealevel;temperature;humidity
41102;BME280;26845;50.190;19.178;2023-04-08T00:14:25;98815.84;;;3.16;94.20
41102;BME280;26845;50.190;19.178;2023-04-08T02:44:08;98896.00;;;2.53;92.88
41102;BME280;26845;50.190;19.178;2023-04-08T05:44:52;99033.19;;;2.62;92.76
41102;BME280;26845;50.190;19.178;2023-04-08T07:36:37;99105.73;;;5.72;88.76
41102;BME280;26845;50.190;19.178;2023-04-08T10:37:08;99165.89;;;12.70;70.31
41102;BME280;26845;50.190;19.178;2023-04-08T11:11:57;99170.57;;;10.96;68.06
41102;BME280;26845;50.190;19.178;2023-04-08T11:14:31;99172.80;;;10.86;68.18
41102;BME280;26845;50.190;19.178;2023-04-08T11:17:04;99175.25;;;10.80;68.50
41102;BME280;26845;50.190;19.178;2023-04-08T11:19:38;99174.44;;;10.78;67.59
41102;BME280;26845;50.190;19.178;2023-04-08T11:22:11;99175.33;;;10.59;67.15
41102;BME280;26845;50.190;19.178;2023-04-08T11:24:45;99175.83;;;10.42;67.64
41102;BME280;26845;50.190;19.178;2023-04-08T11:27:18;99176.75;;;10.33;68.02
41102;BME280;26845;50.190;19.178;2023-04-08T11:29:55;99177.91;;;10.28;67.32
41102;BME280;26845;50.190;19.178;2023-04-08T11:32:28;99176.62;;;10.18;67.51
41102;BME280;26845;50.190;19.178;2023-04-08T11:35:05;99176.64;;;10.20;67.98
41102;BME280;26845;50.190;19.178;2023-04-08T11:37:39;99174.39;;;10.22;68.02
41102;BME280;26845;50.190;19.178;2023-04-08T11:40:18;99177.31;;;10.21;67.52
41102;BME280;26845;50.190;19.178;2023-04-08T11:43:17;99180.40;;;10.02;66.31
41102;BME280;26845;50.190;19.178;2023-04-08T11:46:16;99190.09;;;9.70;66.24
41102;BME280;26845;50.190;19.178;2023-04-08T11:49:15;99185.08;;;9.42;67.31
41102;BME280;26845;50.190;19.178;2023-04-08T11:52:14;99187.34;;;9.32;67.70
41102;BME280;26845;50.190;19.178;2023-04-08T11:55:26;99194.73;;;9.18;67.50
41102;BME280;26845;50.190;19.178;2023-04-08T11:58:05;99189.66;;;9.04;67.36
41102;BME280;26845;50.190;19.178;2023-04-08T12:01:04;99191.14;;;8.86;67.56
41102;BME280;26845;50.190;19.178;2023-04-08T12:04:03;99188.94;;;8.72;67.78
41102;BME280;26845;50.190;19.178;2023-04-08T12:07:02;99191.62;;;8.61;68.13
41102;BME280;26845;50.190;19.178;2023-04-08T12:10:01;99189.77;;;8.57;68.34
41102;BME280;26845;50.190;19.178;2023-04-08T12:13:00;99188.66;;;8.54;68.42
41102;BME280;26845;50.190;19.178;2023-04-08T12:15:59;99190.39;;;8.52;68.77
41102;BME280;26845;50.190;19.178;2023-04-08T12:18:39;99189.32;;;8.53;68.85
41102;BME280;26845;50.190;19.178;2023-04-08T12:21:19;99188.02;;;8.45;68.90
41102;BME280;26845;50.190;19.178;2023-04-08T12:24:18;99192.63;;;8.38;68.99
41102;BME280;26845;50.190;19.178;2023-04-08T12:27:17;99192.40;;;8.38;69.45
41102;BME280;26845;50.190;19.178;2023-04-08T12:29:57;99189.28;;;8.29;68.96
41102;BME280;26845;50.190;19.178;2023-04-08T12:32:37;99191.40;;;8.21;69.14
41102;BME280;26845;50.190;19.178;2023-04-08T12:35:17;99194.98;;;8.12;69.01
41102;BME280;26845;50.190;19.178;2023-04-08T12:37:57;99200.66;;;8.06;69.10
41102;BME280;26845;50.190;19.178;2023-04-08T12:40:55;99196.82;;;7.98;69.06
41102;BME280;26845;50.190;19.178;2023-04-08T12:43:36;99199.66;;;7.82;69.96
41102;BME280;26845;50.190;19.178;2023-04-08T12:46:16;99201.94;;;7.67;70.54
41102;BME280;26845;50.190;19.178;2023-04-08T12:48:56;99203.53;;;7.61;71.33
41102;BME280;26845;50.190;19.178;2023-04-08T12:51:55;99201.38;;;7.60;71.65
41102;BME280;26845;50.190;19.178;2023-04-08T12:54:54;99200.08;;;7.62;72.28
41102;BME280;26845;50.190;19.178;2023-04-08T13:00:51;99203.45;;;7.49;72.35
41102;BME280;26845;50.190;19.178;2023-04-08T13:03:51;99199.46;;;7.40;72.44
41102;BME280;26845;50.190;19.178;2023-04-08T13:06:50;99205.52;;;7.33;72.67
41102;BME280;26845;50.190;19.178;2023-04-08T13:09:49;99205.66;;;7.32;72.75
41102;BME280;26845;50.190;19.178;2023-04-08T13:15:27;99206.45;;;7.20;72.71
41102;BME280;26845;50.190;19.178;2023-04-08T13:21:07;99205.39;;;7.20;73.05
41102;BME280;26845;50.190;19.178;2023-04-08T13:29:44;99206.66;;;7.28;73.33
41102;BME280;26845;50.190;19.178;2023-04-08T13:35:04;99205.05;;;7.21;73.48
41102;BME280;26845;50.190;19.178;2023-04-08T13:38:03;99203.41;;;7.17;73.62
41102;BME280;26845;50.190;19.178;2023-04-08T13:41:02;99199.77;;;7.17;73.87
41102;BME280;26845;50.190;19.178;2023-04-08T13:44:01;99200.72;;;7.16;73.95
41102;BME280;26845;50.190;19.178;2023-04-08T13:47:00;99196.73;;;7.18;74.10
41102;BME280;26845;50.190;19.178;2023-04-08T13:49:59;99193.86;;;7.25;74.17
41102;BME280;26845;50.190;19.178;2023-04-08T13:52:39;99191.48;;;7.33;74.53
41102;BME280;26845;50.190;19.178;2023-04-08T13:55:38;99197.42;;;7.36;74.54
41102;BME280;26845;50.190;19.178;2023-04-08T13:58:37;99195.13;;;7.34;74.21
41102;BME280;26845;50.190;19.178;2023-04-08T14:01:36;99196.17;;;7.29;74.56
41102;BME280;26845;50.190;19.178;2023-04-08T14:04:35;99199.63;;;7.24;74.25
41102;BME280;26845;50.190;19.178;2023-04-08T14:07:15;99199.79;;;7.23;74.64
41102;BME280;26845;50.190;19.178;2023-04-08T14:09:55;99197.56;;;7.24;74.79
41102;BME280;26845;50.190;19.178;2023-04-08T14:12:54;99200.85;;;7.21;74.67
41102;BME280;26845;50.190;19.178;2023-04-08T14:21:13;99187.43;;;7.18;75.12
41102;BME280;26845;50.190;19.178;2023-04-08T14:27:11;99188.54;;;7.26;75.20
41102;BME280;26845;50.190;19.178;2023-04-08T14:58:44;99195.30;;;7.34;76.02
41102;BME280;26845;50.190;19.178;2023-04-08T15:01:42;99198.08;;;7.39;76.06
41102;BME280;26845;50.190;19.178;2023-04-08T15:13:00;99193.96;;;7.51;75.96
41102;BME280;26845;50.190;19.178;2023-04-08T15:15:41;99194.33;;;7.48;76.15
41102;BME280;26845;50.190;19.178;2023-04-08T15:23:41;99196.47;;;7.50;76.43
41102;BME280;26845;50.190;19.178;2023-04-08T15:26:21;99193.80;;;7.52;76.42
41102;BME280;26845;50.190;19.178;2023-04-08T15:29:01;99194.45;;;7.54;76.64
41102;BME280;26845;50.190;19.178;2023-04-08T15:40:17;99193.10;;;7.79;76.66
41102;BME280;26845;50.190;19.178;2023-04-08T15:43:16;99190.25;;;7.89;76.57
41102;BME280;26845;50.190;19.178;2023-04-08T18:16:41;99287.58;;;7.38;77.23
41102;BME280;26845;50.190;19.178;2023-04-08T18:42:16;99320.64;;;7.13;77.44
41102;BME280;26845;50.190;19.178;2023-04-08T20:17:54;99321.06;;;6.44;79.06
